createdAt,value
2022-11-06T00:01:12.950Z,10.30
2022-11-06T00:03:40.009Z,10.26
2022-11-06T00:06:31.605Z,10.31
2022-11-06T00:09:03.100Z,10.13
2022-11-06T00:11:30.348Z,10.31
2022-11-06T00:13:57.515Z,10.25
2022-11-06T00:16:24.346Z,10.29
2022-11-06T00:18:51.044Z,10.18
2022-11-06T00:21:20.223Z,10.14
2022-11-06T00:23:48.043Z,9.95
2022-11-06T00:26:23.257Z,10.26
2022-11-06T00:28:50.278Z,10.20
2022-11-06T00:31:19.570Z,10.05
2022-11-06T00:33:46.818Z,9.98
2022-11-06T00:36:16.515Z,10.21
2022-11-06T00:38:43.283Z,9.97
2022-11-06T00:41:12.523Z,10.03
2022-11-06T00:43:39.627Z,10.18
2022-11-06T00:46:09.340Z,10.10
2022-11-06T00:48:37.010Z,10.21
2022-11-06T00:51:12.948Z,10.14
2022-11-06T00:53:39.905Z,10.09
2022-11-06T00:56:09.283Z,10.21
2022-11-06T00:58:36.245Z,10.10
2022-11-06T01:01:07.209Z,9.97
2022-11-06T01:03:33.805Z,10.17
2022-11-06T01:06:12.366Z,10.10
2022-11-06T01:08:39.700Z,10.01
2022-11-06T01:11:13.933Z,10.23
2022-11-06T01:13:41.867Z,10.29
2022-11-06T01:16:15.725Z,10.28
2022-11-06T01:18:44.121Z,10.24
2022-11-06T01:21:16.341Z,10.17
2022-11-06T01:23:43.989Z,10.14
2022-11-06T01:26:12.981Z,10.23
2022-11-06T01:28:40.965Z,10.16
2022-11-06T01:31:11.149Z,10.15
2022-11-06T01:33:37.981Z,10.30
2022-11-06T01:36:04.983Z,10.18
2022-11-06T01:38:31.561Z,10.33
2022-11-06T01:40:58.148Z,10.25
2022-11-06T01:43:54.372Z,10.14
2022-11-06T01:46:23.274Z,10.28
2022-11-06T01:49:00.158Z,10.03
2022-11-06T01:51:29.323Z,10.01
2022-11-06T01:53:57.211Z,10.08
2022-11-06T01:56:24.478Z,10.28
2022-11-06T01:58:54.429Z,10.13
2022-11-06T02:01:22.133Z,10.21
2022-11-06T02:04:03.143Z,10.24
2022-11-06T02:06:30.149Z,10.17
2022-11-06T02:08:56.761Z,10.20
2022-11-06T02:11:23.392Z,10.05
2022-11-06T02:14:09.730Z,10.19
2022-11-06T02:16:49.152Z,10.25
2022-11-06T02:19:32.453Z,10.18
2022-11-06T02:22:43.824Z,9.89
2022-11-06T02:25:32.605Z,9.96
2022-11-06T02:28:17.551Z,10.01
2022-11-06T02:30:47.436Z,10.10
2022-11-06T02:33:17.900Z,9.83
2022-11-06T02:35:52.474Z,10.05
2022-11-06T02:38:28.707Z,10.13
2022-11-06T02:41:02.631Z,10.16
2022-11-06T02:43:38.399Z,10.18
2022-11-06T02:46:32.162Z,9.95
2022-11-06T02:49:10.017Z,9.80
2022-11-06T02:51:43.601Z,10.09
2022-11-06T02:54:12.246Z,10.02
2022-11-06T02:56:45.200Z,10.12
2022-11-06T02:59:21.771Z,10.20
2022-11-06T03:01:56.138Z,10.17
2022-11-06T03:04:45.983Z,9.92
2022-11-06T03:07:31.321Z,10.03
2022-11-06T03:09:58.029Z,9.95
2022-11-06T03:12:36.056Z,9.72
2022-11-06T03:15:27.720Z,9.68
2022-11-06T03:18:00.314Z,9.81
2022-11-06T03:20:36.199Z,9.79
2022-11-06T03:23:08.817Z,9.84
2022-11-06T03:25:43.446Z,9.73
2022-11-06T03:28:25.554Z,9.55
2022-11-06T03:30:59.923Z,9.52
2022-11-06T03:33:40.515Z,9.58
2022-11-06T03:36:14.984Z,9.54
2022-11-06T03:38:49.832Z,9.58
2022-11-06T03:41:39.665Z,9.65
2022-11-06T03:44:10.461Z,9.68
2022-11-06T03:46:42.016Z,9.61
2022-11-06T03:49:13.738Z,9.67
2022-11-06T03:51:45.207Z,9.65
2022-11-06T03:54:17.820Z,9.72
2022-11-06T03:56:50.975Z,9.56
2022-11-06T03:59:23.370Z,9.64
2022-11-06T04:01:53.940Z,9.65
2022-11-06T04:04:38.635Z,9.68
2022-11-06T04:07:12.332Z,9.78
2022-11-06T04:10:01.109Z,9.90
2022-11-06T04:12:48.520Z,9.77
2022-11-06T04:15:18.141Z,9.78
2022-11-06T04:17:44.565Z,9.78
2022-11-06T04:20:36.731Z,9.69
2022-11-06T04:23:22.537Z,9.62
2022-11-06T04:26:19.764Z,9.47
2022-11-06T04:29:02.414Z,9.49
2022-11-06T04:31:35.190Z,9.85
2022-11-06T04:34:27.018Z,9.81
2022-11-06T04:37:08.955Z,9.57
2022-11-06T04:39:52.876Z,9.54
2022-11-06T04:42:28.428Z,9.65
2022-11-06T04:45:20.591Z,9.50
2022-11-06T04:47:48.175Z,9.46
2022-11-06T04:50:17.443Z,9.63
2022-11-06T04:52:45.241Z,9.39
2022-11-06T04:55:11.759Z,9.48
2022-11-06T04:57:38.345Z,9.38
2022-11-06T05:00:06.469Z,9.75
2022-11-06T05:02:33.395Z,9.63
2022-11-06T05:05:00.024Z,9.75
2022-11-06T05:07:26.697Z,9.65
2022-11-06T05:09:53.255Z,9.62
2022-11-06T05:12:19.816Z,9.70
2022-11-06T05:14:46.403Z,9.70
2022-11-06T05:17:12.986Z,9.60
2022-11-06T05:19:39.632Z,9.47
2022-11-06T05:22:24.959Z,9.59
2022-11-06T05:24:51.527Z,9.55
2022-11-06T05:27:18.165Z,9.46
2022-11-06T05:29:45.301Z,9.59
2022-11-06T05:32:12.161Z,9.46
2022-11-06T05:34:38.725Z,9.37
2022-11-06T05:37:05.323Z,9.16
2022-11-06T05:39:31.984Z,9.14
2022-11-06T05:41:58.743Z,9.20
2022-11-06T05:44:25.366Z,9.37
2022-11-06T05:46:51.952Z,9.36
2022-11-06T05:49:18.830Z,9.31
2022-11-06T05:51:45.941Z,9.30
2022-11-06T05:54:12.729Z,9.19
2022-11-06T05:56:39.336Z,9.10
2022-11-06T05:59:06.648Z,9.20
2022-11-06T06:01:33.352Z,9.32
2022-11-06T06:04:00.075Z,9.26
2022-11-06T06:06:26.933Z,9.32
2022-11-06T06:08:53.432Z,9.38
2022-11-06T06:11:20.190Z,9.21
2022-11-06T06:13:48.082Z,9.25
2022-11-06T06:16:14.672Z,9.36
2022-11-06T06:18:41.182Z,9.21
2022-11-06T06:21:07.707Z,9.32
2022-11-06T06:23:35.180Z,9.25
2022-11-06T06:26:01.741Z,9.04
2022-11-06T06:28:28.300Z,9.14
2022-11-06T06:31:00.084Z,9.14
2022-11-06T06:33:28.058Z,9.26
2022-11-06T06:35:54.605Z,9.01
2022-11-06T06:38:21.104Z,8.84
2022-11-06T06:40:47.647Z,8.91
2022-11-06T06:43:14.213Z,8.89
2022-11-06T06:45:41.792Z,8.98
2022-11-06T06:48:09.270Z,9.09
2022-11-06T06:50:35.936Z,9.03
2022-11-06T06:53:02.707Z,9.01
2022-11-06T06:55:29.539Z,8.96
2022-11-06T06:58:00.236Z,9.11
2022-11-06T07:00:28.929Z,8.90
2022-11-06T07:02:55.954Z,8.84
2022-11-06T07:05:22.982Z,8.74
2022-11-06T07:07:49.617Z,8.90
2022-11-06T07:10:16.385Z,8.90
2022-11-06T07:12:42.986Z,9.08
2022-11-06T07:15:10.076Z,9.09
2022-11-06T07:17:36.715Z,8.76
2022-11-06T07:20:04.319Z,8.59
2022-11-06T07:22:36.670Z,8.74
2022-11-06T07:25:04.814Z,8.78
2022-11-06T07:27:31.375Z,8.65
2022-11-06T07:29:57.962Z,8.73
2022-11-06T07:32:24.473Z,8.73
2022-11-06T07:34:51.034Z,8.80
2022-11-06T07:37:17.630Z,8.79
2022-11-06T07:39:44.233Z,8.74
2022-11-06T07:42:10.793Z,8.71
2022-11-06T07:44:37.391Z,8.90
2022-11-06T07:47:04.059Z,8.80
2022-11-06T07:49:30.660Z,9.10
2022-11-06T07:51:57.213Z,9.18
2022-11-06T07:54:23.757Z,9.10
2022-11-06T07:56:50.298Z,9.15
2022-11-06T07:59:16.982Z,9.01
2022-11-06T08:01:43.735Z,9.48
2022-11-06T08:04:10.850Z,9.30
2022-11-06T08:06:37.479Z,9.40
2022-11-06T08:09:08.370Z,9.34
2022-11-06T08:11:35.121Z,9.59
2022-11-06T08:14:01.856Z,9.81
2022-11-06T08:16:28.490Z,9.77
2022-11-06T08:18:55.979Z,9.73
2022-11-06T08:21:22.904Z,9.66
2022-11-06T08:23:49.527Z,9.72
2022-11-06T08:26:16.403Z,9.90
2022-11-06T08:28:43.274Z,9.81
2022-11-06T08:31:10.071Z,9.90
2022-11-06T08:33:38.121Z,9.97
2022-11-06T08:36:06.392Z,10.02
2022-11-06T08:38:32.996Z,10.10
2022-11-06T08:41:07.359Z,10.25
2022-11-06T08:43:35.099Z,10.18
2022-11-06T08:46:01.804Z,10.31
2022-11-06T08:48:28.481Z,10.33
2022-11-06T08:50:55.147Z,10.41
2022-11-06T08:53:21.762Z,10.31
2022-11-06T08:55:48.417Z,10.36
2022-11-06T08:58:15.361Z,10.58
2022-11-06T09:00:42.535Z,10.68
2022-11-06T09:03:16.249Z,10.80
2022-11-06T09:05:44.106Z,10.79
2022-11-06T09:08:12.070Z,10.54
2022-11-06T09:10:40.699Z,10.79
2022-11-06T09:13:07.875Z,10.93
2022-11-06T09:15:34.501Z,10.96
2022-11-06T09:18:01.228Z,10.88
2022-11-06T09:20:28.255Z,11.22
2022-11-06T09:22:59.654Z,11.24
2022-11-06T09:25:26.499Z,11.25
2022-11-06T09:27:58.958Z,11.29
2022-11-06T09:30:31.143Z,11.28
2022-11-06T09:33:01.429Z,11.37
2022-11-06T09:35:30.567Z,11.34
2022-11-06T09:38:04.932Z,11.49
2022-11-06T09:40:36.128Z,11.78
2022-11-06T09:43:27.257Z,11.88
2022-11-06T09:46:31.758Z,12.04
2022-11-06T09:49:06.078Z,12.04
2022-11-06T09:51:48.886Z,11.69
2022-11-06T09:54:41.633Z,11.92
2022-11-06T09:57:19.244Z,11.90
2022-11-06T09:59:47.896Z,11.89
2022-11-06T10:02:30.743Z,12.01
2022-11-06T10:05:25.517Z,12.33
2022-11-06T10:07:56.355Z,12.57
2022-11-06T10:10:29.364Z,12.69
2022-11-06T10:13:32.935Z,12.74
2022-11-06T10:16:24.845Z,12.68
2022-11-06T10:19:25.637Z,12.80
2022-11-06T10:22:07.409Z,13.03
2022-11-06T10:24:40.155Z,13.19
2022-11-06T10:27:15.859Z,13.18
2022-11-06T10:29:54.969Z,13.09
2022-11-06T10:32:30.749Z,13.17
2022-11-06T10:35:02.973Z,13.34
2022-11-06T10:37:35.391Z,13.11
2022-11-06T10:40:07.141Z,13.42
2022-11-06T10:42:39.816Z,13.49
2022-11-06T10:45:14.579Z,13.27
2022-11-06T10:48:06.353Z,13.49
2022-11-06T10:51:01.926Z,13.42
2022-11-06T10:53:52.320Z,13.25
2022-11-06T10:56:37.741Z,13.40
2022-11-06T10:59:05.152Z,13.30
2022-11-06T11:01:31.935Z,13.34
2022-11-06T11:03:58.722Z,13.33
2022-11-06T11:06:25.580Z,13.53
2022-11-06T11:08:52.955Z,13.55
2022-11-06T11:11:25.214Z,13.38
2022-11-06T11:14:00.750Z,13.39
2022-11-06T11:16:32.262Z,13.58
2022-11-06T11:19:25.772Z,13.40
2022-11-06T11:21:55.307Z,13.56
2022-11-06T11:24:21.729Z,13.62
2022-11-06T11:26:51.284Z,13.49
2022-11-06T11:29:26.005Z,13.47
2022-11-06T11:32:02.619Z,13.43
2022-11-06T11:34:32.160Z,13.41
2022-11-06T11:37:03.311Z,13.37
2022-11-06T11:39:32.650Z,13.54
2022-11-06T11:42:31.801Z,13.86
2022-11-06T11:45:10.226Z,13.85
2022-11-06T11:47:38.716Z,14.18
2022-11-06T11:50:33.026Z,14.29
2022-11-06T11:53:14.757Z,14.51
2022-11-06T11:55:45.347Z,14.95
2022-11-06T11:58:23.509Z,15.13
2022-11-06T12:00:58.796Z,14.84
2022-11-06T12:03:34.224Z,14.79
2022-11-06T12:06:20.671Z,14.92
2022-11-06T12:08:56.404Z,14.59
2022-11-06T12:11:28.020Z,14.61
2022-11-06T12:14:29.374Z,14.61
2022-11-06T12:17:17.924Z,14.27
2022-11-06T12:19:51.367Z,14.45
2022-11-06T12:22:28.795Z,14.44
2022-11-06T12:25:10.149Z,14.38
2022-11-06T12:27:52.784Z,14.12
2022-11-06T12:30:21.110Z,14.09
2022-11-06T12:33:14.951Z,14.21
2022-11-06T12:35:48.773Z,14.10
2022-11-06T12:38:31.106Z,13.80
2022-11-06T12:41:04.092Z,13.94
2022-11-06T12:43:47.931Z,14.15
2022-11-06T12:46:29.410Z,13.86
2022-11-06T12:49:23.786Z,14.32
2022-11-06T12:51:56.306Z,14.03
2022-11-06T12:54:52.458Z,13.96
2022-11-06T12:57:36.968Z,14.06
2022-11-06T13:00:19.954Z,13.73
2022-11-06T13:03:00.301Z,14.05
2022-11-06T13:05:38.807Z,14.00
2022-11-06T13:08:44.632Z,13.97
2022-11-06T13:11:23.921Z,14.11
2022-11-06T13:14:39.884Z,14.10
2022-11-06T13:17:25.299Z,14.29
2022-11-06T13:20:07.615Z,14.20
2022-11-06T13:22:44.954Z,14.38
2022-11-06T13:25:11.472Z,14.54
2022-11-06T13:28:10.282Z,14.73
2022-11-06T13:30:38.917Z,14.37
2022-11-06T13:33:22.894Z,14.34
2022-11-06T13:35:49.724Z,14.43
2022-11-06T13:38:23.123Z,14.60
2022-11-06T13:40:53.701Z,14.68
2022-11-06T13:43:28.935Z,14.59
2022-11-06T13:46:01.564Z,14.41
2022-11-06T13:48:44.432Z,14.31
2022-11-06T13:51:20.074Z,14.05
2022-11-06T13:54:23.769Z,14.17
2022-11-06T13:57:07.258Z,13.84
2022-11-06T14:00:03.983Z,14.06
2022-11-06T14:03:16.580Z,14.12
2022-11-06T14:05:57.456Z,14.21
2022-11-06T14:08:30.603Z,13.90
2022-11-06T14:11:11.086Z,13.80
2022-11-06T14:13:38.491Z,13.97
2022-11-06T14:16:34.666Z,13.91
2022-11-06T14:19:01.530Z,14.14
2022-11-06T14:21:37.293Z,13.97
2022-11-06T14:24:30.387Z,13.89
2022-11-06T14:26:58.327Z,13.71
2022-11-06T14:29:27.920Z,13.82
2022-11-06T14:31:58.688Z,13.89
2022-11-06T14:34:30.846Z,13.84
2022-11-06T14:36:57.692Z,13.61
2022-11-06T14:39:56.784Z,13.79
2022-11-06T14:42:27.068Z,13.83
2022-11-06T14:45:00.911Z,13.81
2022-11-06T14:47:49.539Z,13.83
2022-11-06T14:50:19.108Z,13.79
2022-11-06T14:52:47.755Z,13.77
2022-11-06T14:55:43.074Z,13.71
2022-11-06T14:58:33.715Z,13.65
2022-11-06T15:01:14.756Z,13.69
2022-11-06T15:03:51.498Z,13.59
2022-11-06T15:06:18.164Z,13.58
2022-11-06T15:08:50.844Z,13.54
2022-11-06T15:11:29.961Z,13.62
2022-11-06T15:14:16.594Z,13.50
2022-11-06T15:16:52.094Z,13.66
2022-11-06T15:19:37.570Z,13.55
2022-11-06T15:22:19.678Z,13.39
2022-11-06T15:25:04.417Z,13.35
2022-11-06T15:27:38.937Z,13.12
2022-11-06T15:30:16.093Z,13.20
2022-11-06T15:32:45.873Z,13.08
2022-11-06T15:35:27.496Z,13.07
2022-11-06T15:38:13.464Z,12.94
2022-11-06T15:40:41.583Z,13.02
2022-11-06T15:43:26.596Z,12.96
2022-11-06T15:46:12.577Z,12.91
2022-11-06T15:48:39.249Z,13.11
2022-11-06T15:51:21.308Z,13.11
2022-11-06T15:53:48.012Z,12.96
2022-11-06T15:56:17.542Z,12.98
2022-11-06T15:58:44.631Z,13.00
2022-11-06T16:01:11.812Z,13.11
2022-11-06T16:03:53.299Z,12.96
2022-11-06T16:06:20.800Z,12.84
2022-11-06T16:08:49.218Z,12.92
2022-11-06T16:11:19.160Z,12.86
2022-11-06T16:13:46.814Z,12.85
2022-11-06T16:16:40.765Z,12.76
2022-11-06T16:19:21.565Z,12.66
2022-11-06T16:22:10.839Z,12.56
2022-11-06T16:24:43.460Z,12.69
2022-11-06T16:27:11.196Z,12.74
2022-11-06T16:29:38.531Z,12.83
2022-11-06T16:32:13.963Z,12.94
2022-11-06T16:34:46.489Z,12.63
2022-11-06T16:37:15.870Z,12.79
2022-11-06T16:39:56.074Z,12.73
2022-11-06T16:42:22.639Z,12.68
2022-11-06T16:44:50.900Z,12.60
2022-11-06T16:47:18.544Z,12.51
2022-11-06T16:49:52.864Z,12.49
2022-11-06T16:52:30.640Z,12.61
2022-11-06T16:55:02.810Z,12.53
2022-11-06T16:57:36.737Z,12.52
2022-11-06T17:00:33.212Z,12.54
2022-11-06T17:03:03.957Z,12.23
2022-11-06T17:05:33.801Z,12.26
2022-11-06T17:08:41.630Z,12.38
2022-11-06T17:11:28.356Z,12.34
2022-11-06T17:13:59.731Z,12.33
2022-11-06T17:19:09.645Z,12.24
2022-11-06T17:21:41.437Z,12.34
2022-11-06T17:24:37.386Z,12.28
2022-11-06T17:27:05.283Z,12.21
2022-11-06T17:29:33.482Z,11.93
2022-11-06T17:32:00.098Z,11.88
2022-11-06T17:34:26.720Z,11.98
2022-11-06T17:36:53.574Z,11.83
2022-11-06T17:39:20.096Z,11.69
2022-11-06T17:41:46.798Z,11.92
2022-11-06T17:44:13.528Z,11.90
2022-11-06T17:46:42.599Z,11.79
2022-11-06T17:49:16.772Z,11.69
2022-11-06T17:51:49.974Z,11.67
2022-11-06T17:54:17.981Z,11.61
2022-11-06T17:56:44.963Z,11.70
2022-11-06T17:59:13.243Z,11.64
2022-11-06T18:01:40.688Z,11.61
2022-11-06T18:04:07.676Z,11.56
2022-11-06T18:06:34.471Z,11.35
2022-11-06T18:09:04.425Z,11.44
2022-11-06T18:11:31.203Z,11.30
2022-11-06T18:13:57.915Z,11.54
2022-11-06T18:16:27.969Z,11.54
2022-11-06T18:18:55.120Z,11.28
2022-11-06T18:21:22.307Z,11.23
2022-11-06T18:23:49.368Z,11.44
2022-11-06T18:26:16.539Z,11.30
2022-11-06T18:28:43.174Z,11.42
2022-11-06T18:31:09.807Z,11.47
2022-11-06T18:33:36.528Z,11.44
2022-11-06T18:36:06.239Z,11.42
2022-11-06T18:38:33.147Z,11.55
2022-11-06T18:41:05.857Z,11.07
2022-11-06T18:43:32.442Z,11.24
2022-11-06T18:46:03.642Z,11.37
2022-11-06T18:48:32.017Z,11.33
2022-11-06T18:51:08.415Z,11.41
2022-11-06T18:53:35.380Z,11.42
2022-11-06T18:56:02.369Z,11.42
2022-11-06T18:58:29.404Z,11.32
2022-11-06T19:01:01.496Z,11.19
2022-11-06T19:03:28.753Z,11.39
2022-11-06T19:05:56.491Z,11.22
2022-11-06T19:08:23.173Z,11.16
2022-11-06T19:10:49.698Z,11.38
2022-11-06T19:13:17.424Z,11.17
2022-11-06T19:15:44.953Z,11.19
2022-11-06T19:18:13.019Z,11.14
2022-11-06T19:20:41.017Z,11.03
2022-11-06T19:23:08.077Z,11.17
2022-11-06T19:25:35.408Z,11.11
2022-11-06T19:28:03.014Z,11.07
2022-11-06T19:30:29.562Z,11.20
2022-11-06T19:32:56.228Z,11.12
2022-11-06T19:35:22.790Z,11.16
2022-11-06T19:37:49.500Z,11.21
2022-11-06T19:40:16.339Z,11.35
2022-11-06T19:42:42.891Z,11.28
2022-11-06T19:45:10.420Z,11.38
2022-11-06T19:47:37.520Z,11.31
2022-11-06T19:50:04.945Z,11.42
2022-11-06T19:52:41.532Z,11.47
2022-11-06T19:55:26.731Z,11.24
2022-11-06T19:57:57.475Z,11.31
2022-11-06T20:00:23.963Z,11.42
2022-11-06T20:02:50.947Z,11.27
2022-11-06T20:05:18.165Z,11.33
2022-11-06T20:07:44.895Z,11.39
2022-11-06T20:10:11.550Z,11.14
2022-11-06T20:12:38.374Z,11.25
2022-11-06T20:15:05.518Z,11.14
2022-11-06T20:17:32.069Z,11.20
2022-11-06T20:19:58.716Z,11.15
2022-11-06T20:22:25.524Z,11.23
2022-11-06T20:24:52.266Z,11.20
2022-11-06T20:27:19.215Z,11.26
2022-11-06T20:29:45.799Z,11.36
2022-11-06T20:32:18.669Z,11.48
2022-11-06T20:34:45.930Z,11.44
2022-11-06T20:37:12.673Z,11.36
2022-11-06T20:39:41.448Z,11.36
2022-11-06T20:42:08.069Z,11.36
2022-11-06T20:44:34.697Z,11.37
2022-11-06T20:47:01.432Z,11.50
2022-11-06T20:49:28.334Z,11.49
2022-11-06T20:52:13.223Z,11.23
2022-11-06T20:54:46.413Z,11.41
2022-11-06T20:57:15.187Z,11.27
2022-11-06T20:59:41.758Z,11.27
2022-11-06T21:02:10.965Z,11.17
2022-11-06T21:04:37.866Z,11.31
2022-11-06T21:07:04.689Z,11.11
2022-11-06T21:09:31.710Z,11.29
2022-11-06T21:11:58.344Z,11.36
2022-11-06T21:14:25.053Z,11.21
2022-11-06T21:16:52.645Z,11.34
2022-11-06T21:19:19.323Z,11.29
2022-11-06T21:21:46.021Z,11.26
2022-11-06T21:24:12.699Z,11.32
2022-11-06T21:26:39.848Z,11.36
2022-11-06T21:29:10.613Z,11.41
2022-11-06T21:31:43.950Z,11.49
2022-11-06T21:34:15.494Z,11.31
2022-11-06T21:36:42.260Z,11.37
2022-11-06T21:39:12.247Z,11.45
2022-11-06T21:41:39.120Z,11.43
2022-11-06T21:44:07.679Z,11.30
2022-11-06T21:46:34.808Z,11.60
2022-11-06T21:49:01.427Z,11.47
2022-11-06T21:51:30.515Z,11.42
2022-11-06T21:54:16.200Z,11.56
2022-11-06T21:56:43.721Z,11.58
2022-11-06T21:59:13.867Z,11.79
2022-11-06T22:01:42.006Z,11.54
2022-11-06T22:04:09.441Z,11.59
2022-11-06T22:06:36.380Z,11.55
2022-11-06T22:09:03.948Z,11.59
2022-11-06T22:11:39.184Z,11.54
2022-11-06T22:14:08.753Z,11.69
2022-11-06T22:16:36.846Z,11.66
2022-11-06T22:19:06.640Z,11.82
2022-11-06T22:21:34.137Z,11.69
2022-11-06T22:24:00.840Z,11.71
2022-11-06T22:26:30.830Z,11.83
2022-11-06T22:28:59.999Z,11.70
2022-11-06T22:31:27.990Z,11.87
2022-11-06T22:33:54.982Z,11.88
2022-11-06T22:36:22.761Z,11.77
2022-11-06T22:38:49.869Z,11.75
2022-11-06T22:41:18.713Z,11.92
2022-11-06T22:43:45.591Z,11.95
2022-11-06T22:46:13.871Z,11.86
2022-11-06T22:48:40.538Z,11.89
2022-11-06T22:51:09.845Z,11.97
2022-11-06T22:53:36.966Z,11.89
2022-11-06T22:56:03.656Z,11.82
2022-11-06T22:58:31.439Z,11.84
2022-11-06T23:00:59.392Z,12.05
2022-11-06T23:03:28.513Z,11.92
2022-11-06T23:05:58.085Z,11.86
2022-11-06T23:08:27.296Z,11.88
2022-11-06T23:10:55.439Z,11.95
2022-11-06T23:13:22.918Z,11.78
2022-11-06T23:15:50.228Z,12.06
2022-11-06T23:18:17.127Z,11.90
2022-11-06T23:20:43.732Z,12.17
2022-11-06T23:23:10.428Z,12.03
2022-11-06T23:25:37.881Z,11.84
2022-11-06T23:28:04.743Z,11.89
2022-11-06T23:30:31.586Z,11.91
2022-11-06T23:32:58.833Z,11.96
2022-11-06T23:35:31.990Z,11.95
2022-11-06T23:37:59.612Z,11.89
2022-11-06T23:40:26.436Z,11.97
2022-11-06T23:42:56.070Z,11.97
2022-11-06T23:45:41.453Z,12.11
2022-11-06T23:48:15.411Z,11.86
2022-11-06T23:50:46.979Z,12.05
2022-11-06T23:53:16.146Z,11.97
2022-11-06T23:55:42.980Z,11.97
2022-11-06T23:58:09.895Z,11.96
